Flight Track Log - Related Links

Times and Time Zones

All times are in EST time to prevent confusion due to time zone crossing. See the DAL6241 flight status page for this flight to view local times or setup timezone preferences in your user account.

Time Position Orientation Groundspeed Altitude Reporting Facility
EST Latitude Longitude Course Direction KTS MPH feet Rate Location/Type
Sat 02:53:47 PM 42.2039 -83.3697 204° Southwest 152 175 1,500  Level Cleveland Center
Sat 02:54:47 PM 42.1547 -83.3797 189° South 197 227 3,400 1,605 Climbing Cleveland Center
Sat 02:55:13 PM 42.1436 -83.3828 192° South 184 212 3,800 2,073 Climbing Cleveland Center
Sat 02:55:42 PM 42.0972 -83.3911 188° South 246 283 5,300 2,516 Climbing Cleveland Center
Sat 02:56:15 PM 42.0653 -83.3969 188° South 238 274 6,400 2,630 Climbing Cleveland Center
Sat 02:56:55 PM 42.0133 -83.4186 197° South 260 299 8,500 2,710 Climbing Cleveland Center
Sat 02:57:17 PM 41.9953 -83.4261 197° South 256 295 9,200 2,459 Climbing Cleveland Center
Sat 02:57:56 PM 41.9422 -83.4450 195° South 280 322 11,000 2,066 Climbing Cleveland Center
Sat 02:58:18 PM 41.9203 -83.4531 195° South 271 312 11,300 1,455 Climbing Cleveland Center
Sat 02:59:00 PM 41.5479 -83.1918 204° Southwest  Level Estimated
Sat 02:59:02 PM 41.8469 -83.4819 196° South 339 390 12,600  Level Cleveland Center
Sat 02:59:20 PM 41.8286 -83.4856 188° South 317 365 12,900 300 Climbing Cleveland Center
Sat 03:00:22 PM 41.7297 -83.5236 196° South 362 417 13,000 726 Climbing Cleveland Center
Sat 03:01:24 PM 41.6292 -83.5606 195° South 375 432 14,400 1,597 Climbing Cleveland Center
Sat 03:02:26 PM 41.5294 -83.5975 196° South 372 428 16,300 1,790 Climbing Cleveland Center
Sat 03:03:28 PM 41.4261 -83.6347 195° South 383 441 18,100 1,984 Climbing Cleveland Center
Sat 03:04:30 PM 41.3050 -83.6781 195° South 377 434 20,400 1,887 Climbing Cleveland Center
Sat 03:05:32 PM 41.2017 -83.7167 196° South 385 443 22,000 1,461 Climbing Cleveland Center
Sat 03:06:25 PM 41.1142 -83.7478 195° South 389 448 23,200 1,409 Climbing Indianapolis Center
Sat 03:07:27 PM 40.9972 -83.7908 196° South 397 457 24,700 1,403 Climbing Indianapolis Center
Sat 03:08:29 PM 40.8908 -83.8286 195° South 398 458 26,100 1,210 Climbing Indianapolis Center
Sat 03:09:31 PM 40.7828 -83.8661 195° South 400 460 27,200 1,113 Climbing Indianapolis Center
Sat 03:10:33 PM 40.6744 -83.9044 195° South 405 466 28,400 1,403 Climbing Indianapolis Center
Sat 03:11:35 PM 40.5681 -83.9422 195° South 398 458 30,100 1,258 Climbing Indianapolis Center
Sat 03:12:37 PM 40.4453 -83.9858 195° South 385 443 31,000 829 Climbing Indianapolis Center
Sat 03:13:38 PM 40.3406 -84.0231 195° South 390 449 31,800 488 Climbing Indianapolis Center
Sat 03:14:40 PM 40.2339 -84.0531 192° South 394 453 32,000 97 Climbing Indianapolis Center
Sat 03:15:42 PM 40.1217 -84.0708 187° South 406 467 32,000  Level Indianapolis Center
Sat 03:16:44 PM 40.0103 -84.0897 187° South 407 468 32,000 435 Level Indianapolis Center
Sat 03:17:46 PM 39.8781 -84.1108 187° South 404 465 32,900 1,171 Climbing Indianapolis Center
Sat 03:18:47 PM 39.7725 -84.1292 188° South 393 452 34,400 1,024 Climbing Indianapolis Center
Sat 03:19:49 PM 39.6719 -84.1458 187° South 374 430 35,000 290 Climbing Indianapolis Center
Sat 03:20:51 PM 39.5694 -84.1622 187° South 372 428 35,000 194 Level Indianapolis Center
Sat 03:21:53 PM 39.4628 -84.1794 187° South 384 442 35,400 581 Climbing Indianapolis Center
Sat 03:22:55 PM 39.3617 -84.1961 187° South 373 429 36,200 968 Climbing Indianapolis Center
Sat 03:23:57 PM 39.2422 -84.2150 187° South 363 418 37,400 871 Climbing Indianapolis Center
Sat 03:24:59 PM 39.1478 -84.2314 188° South 347 399 38,000 195 Climbing Indianapolis Center
Sat 03:27:02 PM 38.9519 -84.2639 187° South 358 412 38,000  Level Indianapolis Center
Sat 03:28:04 PM 38.8503 -84.2778 186° South 366 421 38,000  Level Indianapolis Center
Sat 03:29:06 PM 38.7422 -84.2653 175° South 391 450 38,000  Level Indianapolis Center
Sat 03:30:08 PM 38.6081 -84.2475 174° South 393 452 38,000  Level Indianapolis Center
Sat 03:31:10 PM 38.4986 -84.2317 174° South 394 453 38,000  Level Indianapolis Center
Sat 03:32:12 PM 38.3894 -84.2167 174° South 394 453 38,000  Level Indianapolis Center
Sat 03:33:13 PM 38.2797 -84.2028 174° South 396 456 38,000  Level Indianapolis Center
Sat 03:34:15 PM 38.1686 -84.1878 174° South 399 459 38,000  Level Indianapolis Center
Sat 03:35:17 PM 38.0597 -84.1728 174° South 395 455 38,000  Level Indianapolis Center
Sat 03:36:19 PM 37.9317 -84.1539 173° South 395 455 38,000  Level Indianapolis Center
Sat 03:37:21 PM 37.8203 -84.1417 175° South 399 459 38,000  Level Indianapolis Center
Sat 03:38:23 PM 37.7103 -84.1269 174° South 398 458 38,000  Level Indianapolis Center
Sat 03:39:24 PM 37.6000 -84.1125 174° South 396 456 38,000  Level Indianapolis Center
Sat 03:40:26 PM 37.4911 -84.0969 174° South 395 455 38,000  Level Indianapolis Center
Sat 03:41:28 PM 37.3800 -84.0831 174° South 398 458 38,000  Level Indianapolis Center
Sat 03:42:30 PM 37.2514 -84.0669 174° South 398 458 38,000  Level Indianapolis Center
Sat 03:43:32 PM 37.1408 -84.0525 174° South 399 459 38,000  Level Indianapolis Center
Sat 03:44:33 PM 37.0294 -84.0369 174° South 401 461 38,000  Level Indianapolis Center
Sat 03:45:35 PM 36.9189 -84.0236 174° South 400 460 38,000  Level Indianapolis Center
Sat 03:46:37 PM 36.8072 -84.0094 174° South 402 463 38,000  Level Indianapolis Center
Sat 03:47:39 PM 36.6950 -83.9947 174° South 405 466 38,000  Level Indianapolis Center
Sat 03:48:41 PM 36.5633 -83.9783 174° South 406 467 38,000  Level Indianapolis Center
Sat 03:49:42 PM 36.4433 -83.9633 174° South 408 470 38,000  Level Indianapolis Center
Sat 03:50:44 PM 36.3278 -83.9472 174° South 413 475 38,000  Level Indianapolis Center
Sat 03:51:46 PM 36.2119 -83.9325 174° South 416 479 38,000  Level Indianapolis Center
Sat 03:52:48 PM 36.0981 -83.9178 174° South 411 473 38,000  Level Indianapolis Center
Sat 03:53:39 PM 36.0103 -83.9078 175° South 405 466 38,000  Level Atlanta Center
Sat 03:54:39 PM 35.8975 -83.8825 170° South 405 466 38,000  Level Atlanta Center
Sat 03:55:39 PM 35.7931 -83.8058 149° Southeast 420 483 38,000  Level Atlanta Center
Sat 03:56:39 PM 35.6908 -83.7217 146° Southeast 425 489 38,000  Level Atlanta Center
Sat 03:57:39 PM 35.5861 -83.6378 147° Southeast 446 513 38,000  Level Atlanta Center
Sat 03:58:39 PM 35.4817 -83.5542 147° Southeast 451 519 38,000  Level Atlanta Center
Sat 03:59:39 PM 35.3747 -83.4681 147° Southeast 457 526 38,000  Level Atlanta Center
Sat 04:00:39 PM 35.2700 -83.3825 146° Southeast 457 526 38,000  Level Atlanta Center
Sat 04:01:39 PM 35.1611 -83.3019 149° Southeast 462 532 38,000  Level Atlanta Center
Sat 04:02:39 PM 35.0561 -83.2142 146° Southeast 462 532 38,000 -50 Level Atlanta Center
Sat 04:03:39 PM 34.9492 -83.1317 148° Southeast 462 532 37,900 -850 Descending Atlanta Center
Sat 04:04:39 PM 34.8336 -83.0367 146° Southeast 487 560 36,300 -1,450 Descending Atlanta Center
Sat 04:05:39 PM 34.7203 -82.9497 148° Southeast 492 566 35,000 -650 Descending Atlanta Center
Sat 04:06:39 PM 34.6089 -82.8603 147° Southeast 486 559 35,000 -200 Level Atlanta Center
Sat 04:07:39 PM 34.4869 -82.7661 148° Southeast 479 551 34,600 -500 Descending Atlanta Center
Sat 04:08:39 PM 34.3731 -82.6797 148° Southeast 485 558 34,000 -900 Descending Atlanta Center
Sat 04:09:39 PM 34.2636 -82.5911 146° Southeast 480 552 32,800 -1,300 Descending Atlanta Center
Sat 04:10:39 PM 34.1500 -82.5050 148° Southeast 480 552 31,400 -1,450 Descending Atlanta Center
Sat 04:11:39 PM 34.0319 -82.4144 148° Southeast 502 578 29,900 -1,200 Descending Atlanta Center
Sat 04:12:39 PM 33.9158 -82.3267 148° Southeast 502 578 29,000 -650 Descending Atlanta Center
Sat 04:13:39 PM 33.8186 -82.2461 145° Southeast 488 562 28,600 -1,000 Descending Atlanta Center
Sat 04:14:39 PM 33.7025 -82.1586 148° Southeast 488 562 27,000 -1,849 Descending Atlanta Center
Sat 04:16:31 PM 33.4744 -82.0186 153° Southeast 496 571 23,300 -1,919 Descending Jacksonville Center
Sat 04:17:31 PM 33.3633 -81.9500 153° Southeast 470 541 21,500 -1,800 Descending Jacksonville Center
Sat 04:18:31 PM 33.2606 -81.8914 155° Southeast 436 502 19,700 -1,750 Descending Jacksonville Center
Sat 04:19:31 PM 33.1619 -81.8306 153° Southeast 411 473 18,000 -1,500 Descending Jacksonville Center
Sat 04:20:31 PM 33.0633 -81.7672 152° Southeast 404 465 16,700 -1,450 Descending Jacksonville Center
Sat 04:21:31 PM 32.9647 -81.7067 153° Southeast 404 465 15,100 -1,500 Descending Jacksonville Center
Sat 04:22:31 PM 32.8808 -81.6558 153° Southeast 390 449 13,700 -1,350 Descending Jacksonville Center
Sat 04:23:31 PM 32.7883 -81.6028 154° Southeast 381 438 12,400 -1,300 Descending Jacksonville Center
Sat 04:24:31 PM 32.6981 -81.5472 153° Southeast 376 433 11,100 -650 Descending Jacksonville Center
Sat 04:25:31 PM 32.6119 -81.4967 154° Southeast 354 407 11,100 -200 Level Jacksonville Center
Sat 04:26:31 PM 32.5236 -81.4439 153° Southeast 326 375 10,700 -700 Descending Jacksonville Center
Sat 04:27:31 PM 32.4522 -81.4131 160° South 283 326 9,700 -1,150 Descending Jacksonville Center
Sat 04:28:31 PM 32.3914 -81.3919 164° South 239 275 8,400 -1,550 Descending Jacksonville Center
Sat 04:29:31 PM 32.3353 -81.3978 185° South 208 239 6,600 -1,700 Descending Jacksonville Center
Sat 04:30:31 PM 32.2872 -81.4058 188° South 203 234 5,000 -1,700 Descending Jacksonville Center
Sat 04:31:31 PM 32.2289 -81.4214 193° South 197 227 3,200 -1,350 Descending Jacksonville Center
Sat 04:32:31 PM 32.1811 -81.4247 183° South 186 214 2,300 -600 Descending Jacksonville Center
Sat 04:33:31 PM 32.1411 -81.4131 166° South 162 186 2,000 -150 Descending Jacksonville Center
Sat 04:34:31 PM 32.1303 -81.3692 106° East 144 166 2,000  Level Jacksonville Center
Sat 04:36:00 PM 32.1167 -81.2000 North  Level FlightAware Approximate
Sat 04:43:00 PM 32.1276 -81.2021 North  Level Estimated
Sat 04:44:00 PM 32.1276 -81.2021 North  Level Estimated
Sat 04:45:00 PM 32.1276 -81.2021 North  Level Estimated
Sat 04:46:00 PM 32.1276 -81.2021 North  Level Estimated

Login

Don't have an account? Register now (free) for customized features, flight alerts, and more!